DLH9TK EDDS-EDDF
Flight info
| Callsign | DLH9TK |
|---|---|
| Flight time | 0h 25m |
| Altitude | 18000 |
| Route | ETASA4B ETASA T163 SPESA SPESA5B |
| Aircraft | A319/M-SDE2E3FGILORWXYZ/HB1 |
Departure
| Time | 2026-05-07 12:24 |
|---|---|
| Airport | Stuttgart Airport (EDDS) |
Arrival
| Time | 2026-05-07 12:50 |
|---|---|
| Airport | Frankfurt Main Airport (EDDF) |
| Time | Latitude | Longitude | Altitude | Speed | Heading |
|---|---|---|---|---|---|
| 2026-05-07 11:59 | 48.68898 | 9.19427 | 1315 ft | 0 kts | 344° |
| 2026-05-07 12:15 | 48.68893 | 9.19430 | 1315 ft | 4 kts | 345° |
| 2026-05-07 12:15 | 48.68866 | 9.19439 | 1314 ft | 4 kts | 352° |
| 2026-05-07 12:15 | 48.68840 | 9.19442 | 1313 ft | 4 kts | 8° |
| 2026-05-07 12:16 | 48.68817 | 9.19429 | 1313 ft | 4 kts | 58° |
| 2026-05-07 12:16 | 48.68814 | 9.19420 | 1313 ft | 1 kts | 74° |
| 2026-05-07 12:18 | 48.68816 | 9.19429 | 1313 ft | 3 kts | 74° |
| 2026-05-07 12:18 | 48.68828 | 9.19494 | 1312 ft | 8 kts | 74° |
| 2026-05-07 12:18 | 48.68847 | 9.19600 | 1309 ft | 13 kts | 74° |
| 2026-05-07 12:18 | 48.68876 | 9.19748 | 1306 ft | 17 kts | 73° |
| 2026-05-07 12:19 | 48.68849 | 9.19888 | 1300 ft | 17 kts | 163° |
| 2026-05-07 12:19 | 48.68829 | 9.20004 | 1295 ft | 14 kts | 62° |
| 2026-05-07 12:19 | 48.68861 | 9.20156 | 1292 ft | 17 kts | 74° |
| 2026-05-07 12:19 | 48.68895 | 9.20337 | 1287 ft | 19 kts | 74° |
| 2026-05-07 12:20 | 48.68934 | 9.20542 | 1284 ft | 20 kts | 73° |
| 2026-05-07 12:20 | 48.68976 | 9.20757 | 1276 ft | 18 kts | 74° |
| 2026-05-07 12:20 | 48.69012 | 9.20952 | 1272 ft | 20 kts | 74° |
| 2026-05-07 12:20 | 48.69054 | 9.21171 | 1267 ft | 23 kts | 74° |
| 2026-05-07 12:21 | 48.69099 | 9.21412 | 1263 ft | 25 kts | 74° |
| 2026-05-07 12:21 | 48.69146 | 9.21656 | 1256 ft | 22 kts | 74° |
| 2026-05-07 12:21 | 48.69190 | 9.21888 | 1250 ft | 24 kts | 74° |
| 2026-05-07 12:21 | 48.69238 | 9.22141 | 1255 ft | 26 kts | 74° |
| 2026-05-07 12:22 | 48.69287 | 9.22397 | 1238 ft | 25 kts | 74° |
| 2026-05-07 12:22 | 48.69336 | 9.22658 | 1233 ft | 27 kts | 74° |
| 2026-05-07 12:22 | 48.69380 | 9.22890 | 1228 ft | 22 kts | 74° |
| 2026-05-07 12:22 | 48.69404 | 9.23087 | 1223 ft | 17 kts | 105° |
| 2026-05-07 12:23 | 48.69326 | 9.23170 | 1218 ft | 14 kts | 164° |
| 2026-05-07 12:23 | 48.69230 | 9.23211 | 1213 ft | 10 kts | 163° |
| 2026-05-07 12:23 | 48.69179 | 9.23201 | 1213 ft | 5 kts | 242° |
| 2026-05-07 12:23 | 48.69170 | 9.23157 | 1214 ft | 4 kts | 255° |
| 2026-05-07 12:24 | 48.69143 | 9.23014 | 1217 ft | 43 kts | 254° |
| 2026-05-07 12:24 | 48.68992 | 9.22212 | 1235 ft | 112 kts | 254° |
| 2026-05-07 12:24 | 48.68734 | 9.20823 | 1386 ft | 150 kts | 256° |
| 2026-05-07 12:24 | 48.68472 | 9.19316 | 2076 ft | 149 kts | 259° |
| 2026-05-07 12:25 | 48.68193 | 9.17773 | 2730 ft | 159 kts | 255° |
| 2026-05-07 12:25 | 48.67849 | 9.16050 | 3168 ft | 182 kts | 254° |
| 2026-05-07 12:25 | 48.67455 | 9.14093 | 3569 ft | 208 kts | 254° |
| 2026-05-07 12:25 | 48.67027 | 9.11881 | 4176 ft | 229 kts | 260° |
| 2026-05-07 12:26 | 48.67187 | 9.09490 | 5108 ft | 235 kts | 294° |
| 2026-05-07 12:26 | 48.68234 | 9.07510 | 5888 ft | 256 kts | 321° |
| 2026-05-07 12:26 | 48.69928 | 9.06499 | 6720 ft | 272 kts | 353° |
| 2026-05-07 12:26 | 48.71847 | 9.06621 | 7708 ft | 279 kts | 3° |
| 2026-05-07 12:27 | 48.73767 | 9.06899 | 8745 ft | 283 kts | 2° |
| 2026-05-07 12:27 | 48.75770 | 9.07173 | 9790 ft | 288 kts | 2° |
| 2026-05-07 12:27 | 48.77798 | 9.07443 | 10518 ft | 303 kts | 2° |
| 2026-05-07 12:27 | 48.79977 | 9.07730 | 10982 ft | 323 kts | 2° |
| 2026-05-07 12:28 | 48.82247 | 9.08037 | 11793 ft | 331 kts | 4° |
| 2026-05-07 12:28 | 48.84514 | 9.08566 | 12683 ft | 337 kts | 7° |
| 2026-05-07 12:28 | 48.86843 | 9.09178 | 13593 ft | 342 kts | 7° |
| 2026-05-07 12:28 | 48.89204 | 9.09788 | 14400 ft | 347 kts | 7° |
| 2026-05-07 12:29 | 48.91596 | 9.10397 | 15206 ft | 350 kts | 7° |
| 2026-05-07 12:29 | 48.94011 | 9.11014 | 16014 ft | 354 kts | 7° |
| 2026-05-07 12:29 | 48.96451 | 9.11634 | 16853 ft | 357 kts | 7° |
| 2026-05-07 12:29 | 48.98898 | 9.12251 | 17686 ft | 351 kts | 7° |
| 2026-05-07 12:30 | 49.01269 | 9.12848 | 17981 ft | 341 kts | 7° |
| 2026-05-07 12:30 | 49.03597 | 9.13448 | 18026 ft | 338 kts | 7° |
| 2026-05-07 12:30 | 49.05913 | 9.14040 | 18026 ft | 337 kts | 6° |
| 2026-05-07 12:30 | 49.08225 | 9.14625 | 18034 ft | 337 kts | 6° |
| 2026-05-07 12:31 | 49.10536 | 9.15214 | 18026 ft | 337 kts | 7° |
| 2026-05-07 12:31 | 49.12846 | 9.15802 | 18030 ft | 337 kts | 6° |
| 2026-05-07 12:31 | 49.15159 | 9.16388 | 18031 ft | 337 kts | 7° |
| 2026-05-07 12:31 | 49.17470 | 9.16979 | 18029 ft | 336 kts | 7° |
| 2026-05-07 12:32 | 49.19774 | 9.17575 | 18032 ft | 336 kts | 7° |
| 2026-05-07 12:32 | 49.22076 | 9.18160 | 18033 ft | 335 kts | 7° |
| 2026-05-07 12:32 | 49.24381 | 9.18746 | 18026 ft | 336 kts | 7° |
| 2026-05-07 12:32 | 49.26683 | 9.19335 | 18036 ft | 336 kts | 7° |
| 2026-05-07 12:33 | 49.31295 | 9.20531 | 18041 ft | 336 kts | 7° |
| 2026-05-07 12:33 | 49.33600 | 9.21126 | 18036 ft | 336 kts | 7° |
| 2026-05-07 12:33 | 49.35904 | 9.21723 | 18044 ft | 336 kts | 7° |
| 2026-05-07 12:34 | 49.38212 | 9.22319 | 18052 ft | 336 kts | 7° |
| 2026-05-07 12:34 | 49.40517 | 9.22913 | 18028 ft | 334 kts | 7° |
| 2026-05-07 12:34 | 49.42787 | 9.23502 | 17764 ft | 328 kts | 7° |
| 2026-05-07 12:34 | 49.45028 | 9.24079 | 17498 ft | 326 kts | 7° |
| 2026-05-07 12:35 | 49.47229 | 9.24656 | 17230 ft | 324 kts | 7° |
| 2026-05-07 12:35 | 49.49446 | 9.25235 | 16962 ft | 323 kts | 7° |
| 2026-05-07 12:35 | 49.51656 | 9.25808 | 16699 ft | 321 kts | 7° |
| 2026-05-07 12:35 | 49.53856 | 9.26377 | 16439 ft | 320 kts | 7° |
| 2026-05-07 12:36 | 49.56049 | 9.26940 | 16182 ft | 319 kts | 7° |
| 2026-05-07 12:36 | 49.58229 | 9.27504 | 15896 ft | 316 kts | 7° |
| 2026-05-07 12:36 | 49.60396 | 9.28070 | 15542 ft | 316 kts | 7° |
| 2026-05-07 12:36 | 49.62556 | 9.28635 | 15161 ft | 314 kts | 7° |
| 2026-05-07 12:37 | 49.64712 | 9.29193 | 14800 ft | 314 kts | 7° |
| 2026-05-07 12:37 | 49.66860 | 9.29756 | 14437 ft | 313 kts | 8° |
| 2026-05-07 12:37 | 49.69005 | 9.30317 | 14073 ft | 312 kts | 8° |
| 2026-05-07 12:37 | 49.71143 | 9.30875 | 13682 ft | 312 kts | 8° |
| 2026-05-07 12:38 | 49.73275 | 9.31435 | 13288 ft | 310 kts | 7° |
| 2026-05-07 12:38 | 49.75397 | 9.31988 | 12914 ft | 308 kts | 7° |
| 2026-05-07 12:38 | 49.77503 | 9.32534 | 12537 ft | 306 kts | 6° |
| 2026-05-07 12:38 | 49.79590 | 9.32495 | 12265 ft | 297 kts | 346° |
| 2026-05-07 12:39 | 49.81485 | 9.31354 | 12014 ft | 291 kts | 330° |
| 2026-05-07 12:39 | 49.83249 | 9.29821 | 11764 ft | 290 kts | 329° |
| 2026-05-07 12:39 | 49.84995 | 9.28296 | 11446 ft | 287 kts | 329° |
| 2026-05-07 12:39 | 49.86732 | 9.26785 | 11086 ft | 286 kts | 330° |
| 2026-05-07 12:40 | 49.88467 | 9.25286 | 10704 ft | 285 kts | 330° |
| 2026-05-07 12:40 | 49.90192 | 9.23795 | 10332 ft | 283 kts | 330° |
| 2026-05-07 12:40 | 49.91909 | 9.22309 | 10006 ft | 280 kts | 330° |
| 2026-05-07 12:40 | 49.93596 | 9.20835 | 9636 ft | 277 kts | 329° |
| 2026-05-07 12:41 | 49.95268 | 9.19375 | 9258 ft | 274 kts | 330° |
| 2026-05-07 12:41 | 49.96922 | 9.17933 | 8883 ft | 271 kts | 329° |
| 2026-05-07 12:41 | 49.98560 | 9.16507 | 8505 ft | 269 kts | 330° |
| 2026-05-07 12:41 | 50.00188 | 9.15094 | 8122 ft | 267 kts | 330° |
| 2026-05-07 12:42 | 50.01777 | 9.13711 | 7733 ft | 264 kts | 330° |
| 2026-05-07 12:42 | 50.03375 | 9.12318 | 7341 ft | 262 kts | 330° |
| 2026-05-07 12:42 | 50.04960 | 9.10932 | 6951 ft | 261 kts | 330° |
| 2026-05-07 12:42 | 50.06533 | 9.09547 | 6547 ft | 260 kts | 330° |
| 2026-05-07 12:43 | 50.08105 | 9.08168 | 6118 ft | 259 kts | 330° |
| 2026-05-07 12:43 | 50.09679 | 9.06791 | 5691 ft | 259 kts | 330° |
| 2026-05-07 12:43 | 50.11251 | 9.05418 | 5261 ft | 259 kts | 330° |
| 2026-05-07 12:43 | 50.12671 | 9.03765 | 5047 ft | 251 kts | 310° |
| 2026-05-07 12:44 | 50.13416 | 9.01440 | 5013 ft | 235 kts | 282° |
| 2026-05-07 12:44 | 50.13420 | 8.98969 | 4888 ft | 225 kts | 260° |
| 2026-05-07 12:44 | 50.12978 | 8.96685 | 4753 ft | 215 kts | 252° |
| 2026-05-07 12:44 | 50.12475 | 8.94538 | 4572 ft | 208 kts | 252° |
| 2026-05-07 12:45 | 50.11986 | 8.92450 | 4427 ft | 201 kts | 252° |
| 2026-05-07 12:45 | 50.11515 | 8.90435 | 4296 ft | 195 kts | 252° |
| 2026-05-07 12:45 | 50.11056 | 8.88478 | 4138 ft | 191 kts | 253° |
| 2026-05-07 12:45 | 50.10602 | 8.86543 | 4060 ft | 191 kts | 252° |
| 2026-05-07 12:46 | 50.10141 | 8.84611 | 3979 ft | 191 kts | 252° |
| 2026-05-07 12:46 | 50.09668 | 8.82685 | 3809 ft | 188 kts | 251° |
| 2026-05-07 12:46 | 50.09186 | 8.80846 | 3633 ft | 181 kts | 250° |
| 2026-05-07 12:46 | 50.08723 | 8.79035 | 3391 ft | 179 kts | 251° |
| 2026-05-07 12:47 | 50.08306 | 8.77221 | 3161 ft | 177 kts | 253° |
| 2026-05-07 12:47 | 50.07934 | 8.75399 | 2893 ft | 177 kts | 254° |
| 2026-05-07 12:47 | 50.07526 | 8.73620 | 2625 ft | 172 kts | 252° |
| 2026-05-07 12:47 | 50.07264 | 8.71870 | 2433 ft | 163 kts | 265° |
| 2026-05-07 12:48 | 50.07128 | 8.70134 | 2250 ft | 161 kts | 261° |
| 2026-05-07 12:48 | 50.06828 | 8.68428 | 1933 ft | 167 kts | 253° |
| 2026-05-07 12:48 | 50.06431 | 8.66740 | 1680 ft | 164 kts | 250° |
| 2026-05-07 12:48 | 50.06044 | 8.65100 | 1424 ft | 158 kts | 252° |
| 2026-05-07 12:49 | 50.05665 | 8.63576 | 1177 ft | 144 kts | 251° |
| 2026-05-07 12:49 | 50.05339 | 8.62167 | 933 ft | 134 kts | 251° |
| 2026-05-07 12:49 | 50.05017 | 8.60835 | 704 ft | 130 kts | 249° |
| 2026-05-07 12:49 | 50.04714 | 8.59545 | 529 ft | 125 kts | 249° |
| 2026-05-07 12:50 | 50.04417 | 8.58293 | 379 ft | 120 kts | 249° |
| 2026-05-07 12:50 | 50.04168 | 8.57250 | 369 ft | 81 kts | 250° |
| 2026-05-07 12:50 | 50.04029 | 8.56670 | 357 ft | 32 kts | 249° |
| 2026-05-07 12:50 | 50.03994 | 8.56366 | 353 ft | 24 kts | 278° |
| 2026-05-07 12:51 | 50.04028 | 8.56160 | 360 ft | 16 kts | 316° |
| 2026-05-07 12:51 | 50.04107 | 8.56191 | 352 ft | 13 kts | 68° |
| 2026-05-07 12:51 | 50.04138 | 8.56325 | 354 ft | 13 kts | 69° |
| 2026-05-07 12:51 | 50.04171 | 8.56465 | 357 ft | 14 kts | 70° |
| 2026-05-07 12:52 | 50.04207 | 8.56616 | 356 ft | 15 kts | 69° |
| 2026-05-07 12:52 | 50.04245 | 8.56764 | 361 ft | 13 kts | 58° |
| 2026-05-07 12:52 | 50.04326 | 8.56822 | 361 ft | 14 kts | 13° |
| 2026-05-07 12:52 | 50.04436 | 8.56851 | 359 ft | 17 kts | 8° |
| 2026-05-07 12:53 | 50.04530 | 8.56883 | 359 ft | 13 kts | 14° |
| 2026-05-07 12:53 | 50.04624 | 8.56919 | 356 ft | 15 kts | 15° |
| 2026-05-07 12:53 | 50.04723 | 8.56985 | 358 ft | 15 kts | 25° |
| 2026-05-07 12:53 | 50.04790 | 8.56969 | 357 ft | 10 kts | 295° |
| 2026-05-07 12:54 | 50.04802 | 8.56916 | 361 ft | 0 kts | 294° |
| 2026-05-07 12:54 | 50.04802 | 8.56914 | 361 ft | 0 kts | 294° |